sensor_id;sensor_type;location;lat;lon;timestamp;temperature;humidity
7894;DHT22;51343;51.396;6.656;2023-05-13T00:05:12;10.80;99.90
7894;DHT22;51343;51.396;6.656;2023-05-13T00:10:42;10.70;99.90
7894;DHT22;51343;51.396;6.656;2023-05-13T00:16:04;10.70;99.90
7894;DHT22;51343;51.396;6.656;2023-05-13T00:18:34;10.80;99.90
7894;DHT22;51343;51.396;6.656;2023-05-13T00:21:01;10.80;99.90
7894;DHT22;51343;51.396;6.656;2023-05-13T00:23:27;10.90;99.90
7894;DHT22;51343;51.396;6.656;2023-05-13T00:25:54;10.90;99.90
7894;DHT22;51343;51.396;6.656;2023-05-13T00:28:34;10.90;99.90
7894;DHT22;51343;51.396;6.656;2023-05-13T00:31:01;10.90;99.90
7894;DHT22;51343;51.396;6.656;2023-05-13T00:33:29;10.90;99.90
7894;DHT22;51343;51.396;6.656;2023-05-13T00:35:56;10.90;99.90
7894;DHT22;51343;51.396;6.656;2023-05-13T00:41:03;11.00;99.90
7894;DHT22;51343;51.396;6.656;2023-05-13T00:43:31;11.00;99.90
7894;DHT22;51343;51.396;6.656;2023-05-13T00:45:57;11.00;99.90
7894;DHT22;51343;51.396;6.656;2023-05-13T00:48:24;10.90;99.90
7894;DHT22;51343;51.396;6.656;2023-05-13T00:50:52;10.80;99.90
7894;DHT22;51343;51.396;6.656;2023-05-13T00:56:00;10.70;99.90
7894;DHT22;51343;51.396;6.656;2023-05-13T00:58:27;10.70;99.90
7894;DHT22;51343;51.396;6.656;2023-05-13T01:01:06;10.70;99.90
7894;DHT22;51343;51.396;6.656;2023-05-13T01:06:43;10.70;99.90
7894;DHT22;51343;51.396;6.656;2023-05-13T01:09:14;10.60;99.90
7894;DHT22;51343;51.396;6.656;2023-05-13T01:11:42;10.60;99.90
7894;DHT22;51343;51.396;6.656;2023-05-13T01:17:13;10.60;99.90
7894;DHT22;51343;51.396;6.656;2023-05-13T01:22:45;10.50;99.90
7894;DHT22;51343;51.396;6.656;2023-05-13T01:28:15;10.40;99.90
7894;DHT22;51343;51.396;6.656;2023-05-13T01:33:34;10.30;99.90
7894;DHT22;51343;51.396;6.656;2023-05-13T01:36:01;10.30;99.90
7894;DHT22;51343;51.396;6.656;2023-05-13T01:38:29;10.30;99.90
7894;DHT22;51343;51.396;6.656;2023-05-13T01:41:03;10.30;99.90
7894;DHT22;51343;51.396;6.656;2023-05-13T01:43:30;10.20;99.90
7894;DHT22;51343;51.396;6.656;2023-05-13T01:45:57;10.20;99.90
7894;DHT22;51343;51.396;6.656;2023-05-13T01:48:24;10.20;99.90
7894;DHT22;51343;51.396;6.656;2023-05-13T01:50:51;10.10;99.90
7894;DHT22;51343;51.396;6.656;2023-05-13T01:53:35;10.10;99.90
7894;DHT22;51343;51.396;6.656;2023-05-13T01:56:02;10.10;99.90
7894;DHT22;51343;51.396;6.656;2023-05-13T01:58:29;10.10;99.90
7894;DHT22;51343;51.396;6.656;2023-05-13T02:00:56;10.10;99.90
7894;DHT22;51343;51.396;6.656;2023-05-13T02:03:22;10.00;99.90
7894;DHT22;51343;51.396;6.656;2023-05-13T02:05:49;10.00;99.90
7894;DHT22;51343;51.396;6.656;2023-05-13T02:08:16;10.00;99.90
7894;DHT22;51343;51.396;6.656;2023-05-13T02:10:44;10.00;99.90
7894;DHT22;51343;51.396;6.656;2023-05-13T02:13:10;10.00;99.90
7894;DHT22;51343;51.396;6.656;2023-05-13T02:15:37;10.00;99.90
7894;DHT22;51343;51.396;6.656;2023-05-13T02:18:04;10.00;99.90
7894;DHT22;51343;51.396;6.656;2023-05-13T02:20:30;10.00;99.90
7894;DHT22;51343;51.396;6.656;2023-05-13T02:22:57;10.00;99.90
7894;DHT22;51343;51.396;6.656;2023-05-13T02:25:24;10.10;99.90
7894;DHT22;51343;51.396;6.656;2023-05-13T02:27:52;10.10;99.90
7894;DHT22;51343;51.396;6.656;2023-05-13T02:30:18;10.10;99.90
7894;DHT22;51343;51.396;6.656;2023-05-13T02:35:48;10.10;99.90
7894;DHT22;51343;51.396;6.656;2023-05-13T02:41:03;10.10;99.90
7894;DHT22;51343;51.396;6.656;2023-05-13T02:43:38;10.10;99.90
7894;DHT22;51343;51.396;6.656;2023-05-13T02:46:05;10.10;99.90
7894;DHT22;51343;51.396;6.656;2023-05-13T02:48:32;10.00;99.90
7894;DHT22;51343;51.396;6.656;2023-05-13T02:50:58;10.00;99.90
7894;DHT22;51343;51.396;6.656;2023-05-13T02:53:25;9.90;99.90
7894;DHT22;51343;51.396;6.656;2023-05-13T02:58:34;9.80;99.90
7894;DHT22;51343;51.396;6.656;2023-05-13T03:01:04;9.80;99.90
7894;DHT22;51343;51.396;6.656;2023-05-13T03:03:37;9.70;99.90
7894;DHT22;51343;51.396;6.656;2023-05-13T03:06:03;9.70;99.90
7894;DHT22;51343;51.396;6.656;2023-05-13T03:08:30;9.70;99.90
7894;DHT22;51343;51.396;6.656;2023-05-13T03:10:57;9.70;99.90
7894;DHT22;51343;51.396;6.656;2023-05-13T03:13:24;9.60;99.90
7894;DHT22;51343;51.396;6.656;2023-05-13T03:15:50;9.60;99.90
7894;DHT22;51343;51.396;6.656;2023-05-13T03:18:18;9.60;99.90
7894;DHT22;51343;51.396;6.656;2023-05-13T03:20:45;9.60;99.90
7894;DHT22;51343;51.396;6.656;2023-05-13T03:23:11;9.60;99.90
7894;DHT22;51343;51.396;6.656;2023-05-13T03:31:01;9.60;99.90
7894;DHT22;51343;51.396;6.656;2023-05-13T03:33:29;9.60;99.90
7894;DHT22;51343;51.396;6.656;2023-05-13T03:35:56;9.50;99.90
7894;DHT22;51343;51.396;6.656;2023-05-13T03:38:22;9.60;99.90
7894;DHT22;51343;51.396;6.656;2023-05-13T03:40:49;9.50;99.90
7894;DHT22;51343;51.396;6.656;2023-05-13T03:43:16;9.50;99.90
7894;DHT22;51343;51.396;6.656;2023-05-13T03:45:43;9.50;99.90
7894;DHT22;51343;51.396;6.656;2023-05-13T03:48:12;9.50;99.90
7894;DHT22;51343;51.396;6.656;2023-05-13T03:53:37;9.50;99.90
7894;DHT22;51343;51.396;6.656;2023-05-13T03:59:07;9.40;99.90
7894;DHT22;51343;51.396;6.656;2023-05-13T04:01:34;9.40;99.90
7894;DHT22;51343;51.396;6.656;2023-05-13T04:04:01;9.40;99.90
7894;DHT22;51343;51.396;6.656;2023-05-13T04:06:27;9.40;99.90
7894;DHT22;51343;51.396;6.656;2023-05-13T04:08:55;9.40;99.90
7894;DHT22;51343;51.396;6.656;2023-05-13T04:11:22;9.50;99.90
7894;DHT22;51343;51.396;6.656;2023-05-13T04:13:49;9.50;99.90
7894;DHT22;51343;51.396;6.656;2023-05-13T04:16:16;9.50;99.90
7894;DHT22;51343;51.396;6.656;2023-05-13T04:18:42;9.50;99.90
7894;DHT22;51343;51.396;6.656;2023-05-13T04:24:13;9.50;99.90
7894;DHT22;51343;51.396;6.656;2023-05-13T04:26:41;9.50;99.90
7894;DHT22;51343;51.396;6.656;2023-05-13T04:32:10;9.50;99.90
7894;DHT22;51343;51.396;6.656;2023-05-13T04:34:40;9.50;99.90
7894;DHT22;51343;51.396;6.656;2023-05-13T04:37:06;9.60;99.90
7894;DHT22;51343;51.396;6.656;2023-05-13T04:42:38;9.60;99.90
7894;DHT22;51343;51.396;6.656;2023-05-13T04:48:08;9.70;99.90
7894;DHT22;51343;51.396;6.656;2023-05-13T04:53:34;9.90;99.90
7894;DHT22;51343;51.396;6.656;2023-05-13T04:56:01;9.90;99.90
7894;DHT22;51343;51.396;6.656;2023-05-13T04:58:29;10.00;99.90
7894;DHT22;51343;51.396;6.656;2023-05-13T05:01:03;10.10;99.90
7894;DHT22;51343;51.396;6.656;2023-05-13T05:03:30;10.20;99.90
7894;DHT22;51343;51.396;6.656;2023-05-13T05:05:57;10.30;99.90
7894;DHT22;51343;51.396;6.656;2023-05-13T05:08:24;10.40;99.90
7894;DHT22;51343;51.396;6.656;2023-05-13T05:10:53;10.50;99.90
7894;DHT22;51343;51.396;6.656;2023-05-13T05:13:19;10.50;99.90
7894;DHT22;51343;51.396;6.656;2023-05-13T05:15:47;10.70;99.90
7894;DHT22;51343;51.396;6.656;2023-05-13T05:21:01;10.80;99.90
7894;DHT22;51343;51.396;6.656;2023-05-13T05:23:28;10.90;99.90
7894;DHT22;51343;51.396;6.656;2023-05-13T05:26:03;10.90;99.90
7894;DHT22;51343;51.396;6.656;2023-05-13T05:28:29;11.10;99.90
7894;DHT22;51343;51.396;6.656;2023-05-13T05:30:58;11.10;99.90
7894;DHT22;51343;51.396;6.656;2023-05-13T05:33:26;11.20;99.90
7894;DHT22;51343;51.396;6.656;2023-05-13T05:36:04;11.30;99.90
7894;DHT22;51343;51.396;6.656;2023-05-13T05:38:30;11.40;99.90
7894;DHT22;51343;51.396;6.656;2023-05-13T05:40:57;11.50;99.90
7894;DHT22;51343;51.396;6.656;2023-05-13T05:43:34;11.50;99.90
7894;DHT22;51343;51.396;6.656;2023-05-13T05:46:02;11.60;99.90
7894;DHT22;51343;51.396;6.656;2023-05-13T05:48:29;11.70;99.90
7894;DHT22;51343;51.396;6.656;2023-05-13T05:50:56;11.80;99.90
7894;DHT22;51343;51.396;6.656;2023-05-13T05:53:22;11.90;99.90
7894;DHT22;51343;51.396;6.656;2023-05-13T05:56:03;12.00;99.90
7894;DHT22;51343;51.396;6.656;2023-05-13T05:58:36;12.10;99.90
7894;DHT22;51343;51.396;6.656;2023-05-13T06:01:04;12.10;99.90
7894;DHT22;51343;51.396;6.656;2023-05-13T06:03:37;12.20;99.90
7894;DHT22;51343;51.396;6.656;2023-05-13T06:09:07;12.40;99.90
7894;DHT22;51343;51.396;6.656;2023-05-13T06:14:37;12.70;99.90
7894;DHT22;51343;51.396;6.656;2023-05-13T06:20:08;12.90;99.90
7894;DHT22;51343;51.396;6.656;2023-05-13T06:25:38;13.10;99.90
7894;DHT22;51343;51.396;6.656;2023-05-13T06:31:01;13.40;99.90
7894;DHT22;51343;51.396;6.656;2023-05-13T06:33:27;13.50;99.90
7894;DHT22;51343;51.396;6.656;2023-05-13T06:35:55;13.60;94.10
7894;DHT22;51343;51.396;6.656;2023-05-13T06:38:22;13.70;93.60
7894;DHT22;51343;51.396;6.656;2023-05-13T06:40:49;13.80;17.60
7894;DHT22;51343;51.396;6.656;2023-05-13T06:46:03;13.90;1.00
7894;DHT22;51343;51.396;6.656;2023-05-13T06:48:29;14.00;1.00
7894;DHT22;51343;51.396;6.656;2023-05-13T06:51:05;14.00;1.00
7894;DHT22;51343;51.396;6.656;2023-05-13T06:53:34;14.10;1.00
7894;DHT22;51343;51.396;6.656;2023-05-13T06:56:04;14.20;72.90
7894;DHT22;51343;51.396;6.656;2023-05-13T07:01:33;14.30;90.70
7894;DHT22;51343;51.396;6.656;2023-05-13T07:07:05;14.40;59.60
7894;DHT22;51343;51.396;6.656;2023-05-13T07:12:34;14.60;1.00
7894;DHT22;51343;51.396;6.656;2023-05-13T07:18:04;14.80;1.00
7894;DHT22;51343;51.396;6.656;2023-05-13T07:23:36;15.00;1.00
7894;DHT22;51343;51.396;6.656;2023-05-13T07:26:03;15.20;1.00
7894;DHT22;51343;51.396;6.656;2023-05-13T07:28:34;15.30;1.00
7894;DHT22;51343;51.396;6.656;2023-05-13T07:31:03;15.30;1.00
7894;DHT22;51343;51.396;6.656;2023-05-13T07:33:34;15.50;1.00
7894;DHT22;51343;51.396;6.656;2023-05-13T07:36:03;15.60;1.00
7894;DHT22;51343;51.396;6.656;2023-05-13T07:38:37;15.60;1.00
7894;DHT22;51343;51.396;6.656;2023-05-13T07:44:07;15.70;1.00
7894;DHT22;51343;51.396;6.656;2023-05-13T07:46:44;15.80;1.00
7894;DHT22;51343;51.396;6.656;2023-05-13T07:52:13;16.10;1.00
7894;DHT22;51343;51.396;6.656;2023-05-13T07:57:44;16.20;1.00
7894;DHT22;51343;51.396;6.656;2023-05-13T08:03:14;16.40;1.00
7894;DHT22;51343;51.396;6.656;2023-05-13T08:08:44;16.50;1.00
7894;DHT22;51343;51.396;6.656;2023-05-13T08:14:15;16.70;1.00
7894;DHT22;51343;51.396;6.656;2023-05-13T08:22:33;17.00;1.00
7894;DHT22;51343;51.396;6.656;2023-05-13T08:28:03;17.20;1.00
7894;DHT22;51343;51.396;6.656;2023-05-13T08:33:33;17.40;1.00
7894;DHT22;51343;51.396;6.656;2023-05-13T08:39:03;17.60;1.00
7894;DHT22;51343;51.396;6.656;2023-05-13T08:47:36;17.90;22.80
7894;DHT22;51343;51.396;6.656;2023-05-13T08:53:10;18.20;54.50
7894;DHT22;51343;51.396;6.656;2023-05-13T08:58:40;18.50;68.70
7894;DHT22;51343;51.396;6.656;2023-05-13T09:04:10;18.80;91.80
7894;DHT22;51343;51.396;6.656;2023-05-13T09:12:44;19.10;55.20
7894;DHT22;51343;51.396;6.656;2023-05-13T09:18:14;18.90;70.70
7894;DHT22;51343;51.396;6.656;2023-05-13T09:20:41;18.90;78.50
7894;DHT22;51343;51.396;6.656;2023-05-13T09:29:15;19.30;81.40
7894;DHT22;51343;51.396;6.656;2023-05-13T09:34:30;19.60;57.80
7894;DHT22;51343;51.396;6.656;2023-05-13T09:37:00;19.90;77.70
7894;DHT22;51343;51.396;6.656;2023-05-13T09:39:27;20.20;64.80
7894;DHT22;51343;51.396;6.656;2023-05-13T09:42:03;20.40;42.90
7894;DHT22;51343;51.396;6.656;2023-05-13T09:44:32;20.50;47.40
7894;DHT22;51343;51.396;6.656;2023-05-13T09:47:03;20.70;42.20
7894;DHT22;51343;51.396;6.656;2023-05-13T09:52:34;20.60;35.80
7894;DHT22;51343;51.396;6.656;2023-05-13T09:58:08;21.10;13.80
7894;DHT22;51343;51.396;6.656;2023-05-13T10:03:40;21.60;18.10
7894;DHT22;51343;51.396;6.656;2023-05-13T10:09:09;21.80;8.80
7894;DHT22;51343;51.396;6.656;2023-05-13T10:14:30;22.30;1.00
7894;DHT22;51343;51.396;6.656;2023-05-13T10:17:04;22.30;4.60
7894;DHT22;51343;51.396;6.656;2023-05-13T10:22:35;22.60;1.00
7894;DHT22;51343;51.396;6.656;2023-05-13T10:25:02;23.00;1.00
7894;DHT22;51343;51.396;6.656;2023-05-13T10:30:32;23.10;1.00
7894;DHT22;51343;51.396;6.656;2023-05-13T10:39:09;23.80;1.00
7894;DHT22;51343;51.396;6.656;2023-05-13T10:47:32;24.40;1.00
7894;DHT22;51343;51.396;6.656;2023-05-13T10:53:05;24.70;1.00
7894;DHT22;51343;51.396;6.656;2023-05-13T10:58:37;25.50;1.00
7894;DHT22;51343;51.396;6.656;2023-05-13T11:04:06;25.80;1.00
7894;DHT22;51343;51.396;6.656;2023-05-13T11:09:29;26.50;1.00
7894;DHT22;51343;51.396;6.656;2023-05-13T11:17:35;26.70;1.00
7894;DHT22;51343;51.396;6.656;2023-05-13T11:20:02;26.60;1.00
7894;DHT22;51343;51.396;6.656;2023-05-13T11:25:32;26.30;1.00
7894;DHT22;51343;51.396;6.656;2023-05-13T11:31:13;26.70;1.00
7894;DHT22;51343;51.396;6.656;2023-05-13T11:36:45;26.00;1.00
7894;DHT22;51343;51.396;6.656;2023-05-13T11:42:15;25.40;1.00
7894;DHT22;51343;51.396;6.656;2023-05-13T11:47:45;24.70;1.00
7894;DHT22;51343;51.396;6.656;2023-05-13T11:50:18;25.10;1.00
7894;DHT22;51343;51.396;6.656;2023-05-13T11:52:46;25.00;1.00
7894;DHT22;51343;51.396;6.656;2023-05-13T11:55:23;24.60;1.00
7894;DHT22;51343;51.396;6.656;2023-05-13T11:57:49;24.30;1.00
7894;DHT22;51343;51.396;6.656;2023-05-13T12:00:16;23.80;1.00
7894;DHT22;51343;51.396;6.656;2023-05-13T12:02:43;23.80;1.00
7894;DHT22;51343;51.396;6.656;2023-05-13T12:05:10;23.70;1.00
7894;DHT22;51343;51.396;6.656;2023-05-13T12:07:37;23.20;1.00
7894;DHT22;51343;51.396;6.656;2023-05-13T12:13:08;23.00;1.00
7894;DHT22;51343;51.396;6.656;2023-05-13T12:15:35;22.60;1.00
7894;DHT22;51343;51.396;6.656;2023-05-13T12:18:02;22.60;1.00
7894;DHT22;51343;51.396;6.656;2023-05-13T12:20:28;23.10;1.00
7894;DHT22;51343;51.396;6.656;2023-05-13T12:22:55;23.80;1.00
7894;DHT22;51343;51.396;6.656;2023-05-13T12:25:37;24.60;1.00
7894;DHT22;51343;51.396;6.656;2023-05-13T12:28:05;25.30;1.00
7894;DHT22;51343;51.396;6.656;2023-05-13T12:33:41;25.90;1.00
7894;DHT22;51343;51.396;6.656;2023-05-13T12:36:15;25.00;1.00
7894;DHT22;51343;51.396;6.656;2023-05-13T12:38:52;25.20;1.00
7894;DHT22;51343;51.396;6.656;2023-05-13T12:44:21;26.00;1.00
7894;DHT22;51343;51.396;6.656;2023-05-13T12:46:48;25.70;1.00
7894;DHT22;51343;51.396;6.656;2023-05-13T12:49:16;24.80;1.00
7894;DHT22;51343;51.396;6.656;2023-05-13T12:51:43;24.30;1.00
7894;DHT22;51343;51.396;6.656;2023-05-13T12:54:10;23.60;1.00
7894;DHT22;51343;51.396;6.656;2023-05-13T12:59:39;24.90;1.00
7894;DHT22;51343;51.396;6.656;2023-05-13T13:05:11;24.90;1.00
7894;DHT22;51343;51.396;6.656;2023-05-13T13:10:40;26.20;1.00
7894;DHT22;51343;51.396;6.656;2023-05-13T13:13:07;26.20;1.00
7894;DHT22;51343;51.396;6.656;2023-05-13T13:15:34;25.50;1.00
7894;DHT22;51343;51.396;6.656;2023-05-13T13:24:06;23.60;1.00
7894;DHT22;51343;51.396;6.656;2023-05-13T13:29:36;25.50;1.00
7894;DHT22;51343;51.396;6.656;2023-05-13T13:35:05;26.60;1.00
7894;DHT22;51343;51.396;6.656;2023-05-13T13:37:32;25.60;1.00
7894;DHT22;51343;51.396;6.656;2023-05-13T13:40:00;24.90;1.00
7894;DHT22;51343;51.396;6.656;2023-05-13T13:42:27;24.30;1.00
7894;DHT22;51343;51.396;6.656;2023-05-13T13:44:53;24.50;1.00
7894;DHT22;51343;51.396;6.656;2023-05-13T13:47:20;25.20;1.00
7894;DHT22;51343;51.396;6.656;2023-05-13T13:49:47;25.80;1.00
7894;DHT22;51343;51.396;6.656;2023-05-13T13:52:13;26.20;1.00
7894;DHT22;51343;51.396;6.656;2023-05-13T13:54:40;26.60;1.00
7894;DHT22;51343;51.396;6.656;2023-05-13T13:57:08;26.60;1.00
7894;DHT22;51343;51.396;6.656;2023-05-13T13:59:35;26.70;1.00
7894;DHT22;51343;51.396;6.656;2023-05-13T14:02:02;27.30;1.00
7894;DHT22;51343;51.396;6.656;2023-05-13T14:04:29;27.30;1.00
7894;DHT22;51343;51.396;6.656;2023-05-13T14:06:57;27.20;1.00
7894;DHT22;51343;51.396;6.656;2023-05-13T14:09:24;27.00;1.00
7894;DHT22;51343;51.396;6.656;2023-05-13T14:11:50;26.30;1.00
7894;DHT22;51343;51.396;6.656;2023-05-13T14:14:18;25.90;1.00
7894;DHT22;51343;51.396;6.656;2023-05-13T14:16:45;25.60;1.00
7894;DHT22;51343;51.396;6.656;2023-05-13T14:19:12;24.90;1.00
7894;DHT22;51343;51.396;6.656;2023-05-13T14:21:39;24.20;1.00
7894;DHT22;51343;51.396;6.656;2023-05-13T14:24:06;23.60;1.00
7894;DHT22;51343;51.396;6.656;2023-05-13T14:26:37;23.30;1.00
7894;DHT22;51343;51.396;6.656;2023-05-13T14:29:04;23.10;1.00
7894;DHT22;51343;51.396;6.656;2023-05-13T14:31:32;23.60;1.00
7894;DHT22;51343;51.396;6.656;2023-05-13T14:33:58;24.30;1.00
7894;DHT22;51343;51.396;6.656;2023-05-13T14:36:25;25.10;1.00
7894;DHT22;51343;51.396;6.656;2023-05-13T14:38:51;24.70;1.00
7894;DHT22;51343;51.396;6.656;2023-05-13T14:41:18;24.30;1.00
7894;DHT22;51343;51.396;6.656;2023-05-13T14:43:47;23.80;1.00
7894;DHT22;51343;51.396;6.656;2023-05-13T14:46:17;23.30;1.00
7894;DHT22;51343;51.396;6.656;2023-05-13T14:48:45;23.00;1.00
7894;DHT22;51343;51.396;6.656;2023-05-13T14:51:12;22.60;1.00
7894;DHT22;51343;51.396;6.656;2023-05-13T14:53:40;22.30;1.00
7894;DHT22;51343;51.396;6.656;2023-05-13T14:56:07;22.10;1.00
7894;DHT22;51343;51.396;6.656;2023-05-13T14:58:35;22.00;1.00
7894;DHT22;51343;51.396;6.656;2023-05-13T15:01:02;22.10;1.00
7894;DHT22;51343;51.396;6.656;2023-05-13T15:06:00;22.10;1.00
7894;DHT22;51343;51.396;6.656;2023-05-13T15:08:27;22.20;1.00
7894;DHT22;51343;51.396;6.656;2023-05-13T15:10:54;22.80;1.00
7894;DHT22;51343;51.396;6.656;2023-05-13T15:13:22;23.80;1.00
7894;DHT22;51343;51.396;6.656;2023-05-13T15:15:49;23.70;1.00
7894;DHT22;51343;51.396;6.656;2023-05-13T15:18:17;22.70;1.00
7894;DHT22;51343;51.396;6.656;2023-05-13T15:20:50;20.90;11.50
7894;DHT22;51343;51.396;6.656;2023-05-13T15:23:18;19.70;96.20
7894;DHT22;51343;51.396;6.656;2023-05-13T15:25:44;18.70;69.60
7894;DHT22;51343;51.396;6.656;2023-05-13T15:28:12;17.90;99.90
7894;DHT22;51343;51.396;6.656;2023-05-13T15:30:39;17.40;99.90
7894;DHT22;51343;51.396;6.656;2023-05-13T15:33:07;17.00;99.90
7894;DHT22;51343;51.396;6.656;2023-05-13T15:35:34;16.80;99.90
7894;DHT22;51343;51.396;6.656;2023-05-13T15:38:01;16.60;1.00
7894;DHT22;51343;51.396;6.656;2023-05-13T15:40:29;16.60;99.90
7894;DHT22;51343;51.396;6.656;2023-05-13T15:42:58;16.50;68.10
7894;DHT22;51343;51.396;6.656;2023-05-13T15:45:24;16.60;99.90
7894;DHT22;51343;51.396;6.656;2023-05-13T15:47:51;16.60;99.90
7894;DHT22;51343;51.396;6.656;2023-05-13T15:50:18;16.60;99.90
7894;DHT22;51343;51.396;6.656;2023-05-13T15:52:46;16.60;99.90
7894;DHT22;51343;51.396;6.656;2023-05-13T15:55:13;16.60;99.90
7894;DHT22;51343;51.396;6.656;2023-05-13T15:57:41;16.60;99.90
7894;DHT22;51343;51.396;6.656;2023-05-13T16:00:08;16.60;99.90
7894;DHT22;51343;51.396;6.656;2023-05-13T16:02:35;16.60;99.90
7894;DHT22;51343;51.396;6.656;2023-05-13T16:05:04;16.60;99.90
7894;DHT22;51343;51.396;6.656;2023-05-13T16:07:31;16.60;99.90
7894;DHT22;51343;51.396;6.656;2023-05-13T16:09:58;16.60;99.90
7894;DHT22;51343;51.396;6.656;2023-05-13T16:12:24;16.60;99.90
7894;DHT22;51343;51.396;6.656;2023-05-13T16:14:58;16.70;99.90
7894;DHT22;51343;51.396;6.656;2023-05-13T16:17:25;16.80;99.90
7894;DHT22;51343;51.396;6.656;2023-05-13T16:19:52;16.90;99.90
7894;DHT22;51343;51.396;6.656;2023-05-13T16:22:26;17.00;99.90
7894;DHT22;51343;51.396;6.656;2023-05-13T16:24:54;17.00;99.90
7894;DHT22;51343;51.396;6.656;2023-05-13T16:27:21;17.10;99.90
7894;DHT22;51343;51.396;6.656;2023-05-13T16:29:48;17.20;99.90
7894;DHT22;51343;51.396;6.656;2023-05-13T16:32:17;17.30;99.90
7894;DHT22;51343;51.396;6.656;2023-05-13T16:34:44;17.40;99.90
7894;DHT22;51343;51.396;6.656;2023-05-13T16:37:10;17.50;99.90
7894;DHT22;51343;51.396;6.656;2023-05-13T16:39:37;17.50;99.90
7894;DHT22;51343;51.396;6.656;2023-05-13T16:42:04;17.40;99.90
7894;DHT22;51343;51.396;6.656;2023-05-13T16:44:31;17.40;99.90
7894;DHT22;51343;51.396;6.656;2023-05-13T16:46:57;17.50;99.90
7894;DHT22;51343;51.396;6.656;2023-05-13T16:49:26;17.50;99.90
7894;DHT22;51343;51.396;6.656;2023-05-13T16:51:52;17.50;99.90
7894;DHT22;51343;51.396;6.656;2023-05-13T16:54:20;17.50;99.90
7894;DHT22;51343;51.396;6.656;2023-05-13T16:56:47;17.60;99.90
7894;DHT22;51343;51.396;6.656;2023-05-13T16:59:18;17.60;99.90
7894;DHT22;51343;51.396;6.656;2023-05-13T17:01:46;17.50;99.90
7894;DHT22;51343;51.396;6.656;2023-05-13T17:04:13;17.50;99.90
7894;DHT22;51343;51.396;6.656;2023-05-13T17:06:41;17.40;99.90
7894;DHT22;51343;51.396;6.656;2023-05-13T17:09:07;17.40;99.90
7894;DHT22;51343;51.396;6.656;2023-05-13T17:11:34;17.40;99.90
7894;DHT22;51343;51.396;6.656;2023-05-13T17:14:01;17.40;99.90
7894;DHT22;51343;51.396;6.656;2023-05-13T17:16:28;17.40;99.90
7894;DHT22;51343;51.396;6.656;2023-05-13T17:18:55;17.50;99.90
7894;DHT22;51343;51.396;6.656;2023-05-13T17:21:23;17.50;99.90
7894;DHT22;51343;51.396;6.656;2023-05-13T17:23:53;17.50;99.90
7894;DHT22;51343;51.396;6.656;2023-05-13T17:26:20;17.60;99.90
7894;DHT22;51343;51.396;6.656;2023-05-13T17:28:48;17.50;99.90
7894;DHT22;51343;51.396;6.656;2023-05-13T17:31:17;17.50;99.90
7894;DHT22;51343;51.396;6.656;2023-05-13T17:33:44;17.50;99.90
7894;DHT22;51343;51.396;6.656;2023-05-13T17:36:11;17.50;99.90
7894;DHT22;51343;51.396;6.656;2023-05-13T17:38:40;17.40;99.90
7894;DHT22;51343;51.396;6.656;2023-05-13T17:41:09;17.40;99.90
7894;DHT22;51343;51.396;6.656;2023-05-13T17:43:37;17.40;99.90
7894;DHT22;51343;51.396;6.656;2023-05-13T17:46:13;17.30;99.90
7894;DHT22;51343;51.396;6.656;2023-05-13T17:48:42;17.30;99.90
7894;DHT22;51343;51.396;6.656;2023-05-13T17:51:10;17.30;99.90
7894;DHT22;51343;51.396;6.656;2023-05-13T17:53:37;17.20;99.90
7894;DHT22;51343;51.396;6.656;2023-05-13T17:56:06;17.20;99.90
7894;DHT22;51343;51.396;6.656;2023-05-13T17:58:37;17.20;99.90
7894;DHT22;51343;51.396;6.656;2023-05-13T18:01:05;17.10;99.90
7894;DHT22;51343;51.396;6.656;2023-05-13T18:03:34;17.10;99.90
7894;DHT22;51343;51.396;6.656;2023-05-13T18:06:01;17.00;99.90
7894;DHT22;51343;51.396;6.656;2023-05-13T18:08:29;17.00;99.90
7894;DHT22;51343;51.396;6.656;2023-05-13T18:11:00;17.00;99.90
7894;DHT22;51343;51.396;6.656;2023-05-13T18:13:27;16.90;99.90
7894;DHT22;51343;51.396;6.656;2023-05-13T18:16:00;16.80;99.90
7894;DHT22;51343;51.396;6.656;2023-05-13T18:18:29;16.80;99.90
7894;DHT22;51343;51.396;6.656;2023-05-13T18:20:56;16.70;99.90
7894;DHT22;51343;51.396;6.656;2023-05-13T18:23:24;16.60;99.90
7894;DHT22;51343;51.396;6.656;2023-05-13T18:25:53;16.60;99.90
7894;DHT22;51343;51.396;6.656;2023-05-13T18:28:19;16.60;99.90
7894;DHT22;51343;51.396;6.656;2023-05-13T18:30:47;16.60;99.90
7894;DHT22;51343;51.396;6.656;2023-05-13T18:33:17;16.60;99.90
7894;DHT22;51343;51.396;6.656;2023-05-13T18:35:46;16.50;99.90
7894;DHT22;51343;51.396;6.656;2023-05-13T18:38:12;16.50;99.90
7894;DHT22;51343;51.396;6.656;2023-05-13T18:40:46;16.40;99.90
7894;DHT22;51343;51.396;6.656;2023-05-13T18:43:13;16.40;99.90
7894;DHT22;51343;51.396;6.656;2023-05-13T18:45:40;16.40;99.90
7894;DHT22;51343;51.396;6.656;2023-05-13T18:48:08;16.40;99.90
7894;DHT22;51343;51.396;6.656;2023-05-13T18:50:36;16.30;99.90
7894;DHT22;51343;51.396;6.656;2023-05-13T18:53:03;16.20;99.90
7894;DHT22;51343;51.396;6.656;2023-05-13T18:55:30;16.20;99.90
7894;DHT22;51343;51.396;6.656;2023-05-13T18:57:58;16.10;99.90
7894;DHT22;51343;51.396;6.656;2023-05-13T19:00:25;16.00;99.90
7894;DHT22;51343;51.396;6.656;2023-05-13T19:02:52;16.00;99.90
7894;DHT22;51343;51.396;6.656;2023-05-13T19:05:19;16.00;99.90
7894;DHT22;51343;51.396;6.656;2023-05-13T19:07:47;15.80;99.90
7894;DHT22;51343;51.396;6.656;2023-05-13T19:10:16;15.60;99.90
7894;DHT22;51343;51.396;6.656;2023-05-13T19:12:43;15.50;99.90
7894;DHT22;51343;51.396;6.656;2023-05-13T19:15:10;15.40;99.90
7894;DHT22;51343;51.396;6.656;2023-05-13T19:17:40;15.20;99.90
7894;DHT22;51343;51.396;6.656;2023-05-13T19:20:10;15.00;99.90
7894;DHT22;51343;51.396;6.656;2023-05-13T19:22:37;15.00;99.90
7894;DHT22;51343;51.396;6.656;2023-05-13T19:25:10;14.90;99.90
7894;DHT22;51343;51.396;6.656;2023-05-13T19:27:40;14.80;99.90
7894;DHT22;51343;51.396;6.656;2023-05-13T19:30:07;14.70;99.90
7894;DHT22;51343;51.396;6.656;2023-05-13T19:32:34;14.70;99.90
7894;DHT22;51343;51.396;6.656;2023-05-13T19:35:01;14.60;99.90
7894;DHT22;51343;51.396;6.656;2023-05-13T19:37:34;14.50;99.90
7894;DHT22;51343;51.396;6.656;2023-05-13T19:40:02;14.50;99.90
7894;DHT22;51343;51.396;6.656;2023-05-13T19:42:30;14.40;99.90
7894;DHT22;51343;51.396;6.656;2023-05-13T19:44:57;14.30;99.90
7894;DHT22;51343;51.396;6.656;2023-05-13T19:47:26;14.10;99.90
7894;DHT22;51343;51.396;6.656;2023-05-13T19:49:54;14.00;99.90
7894;DHT22;51343;51.396;6.656;2023-05-13T19:52:23;14.00;99.90
7894;DHT22;51343;51.396;6.656;2023-05-13T19:54:49;13.90;99.90
7894;DHT22;51343;51.396;6.656;2023-05-13T19:57:16;13.80;99.90
7894;DHT22;51343;51.396;6.656;2023-05-13T19:59:44;13.80;99.90
7894;DHT22;51343;51.396;6.656;2023-05-13T20:02:14;13.70;99.90
7894;DHT22;51343;51.396;6.656;2023-05-13T20:04:44;13.60;99.90
7894;DHT22;51343;51.396;6.656;2023-05-13T20:07:11;13.50;99.90
7894;DHT22;51343;51.396;6.656;2023-05-13T20:09:39;13.50;99.90
7894;DHT22;51343;51.396;6.656;2023-05-13T20:12:08;13.40;1.00
7894;DHT22;51343;51.396;6.656;2023-05-13T20:14:41;13.40;1.00
7894;DHT22;51343;51.396;6.656;2023-05-13T20:17:14;13.40;1.00
7894;DHT22;51343;51.396;6.656;2023-05-13T20:19:42;13.40;1.00
7894;DHT22;51343;51.396;6.656;2023-05-13T20:22:10;13.30;1.00
7894;DHT22;51343;51.396;6.656;2023-05-13T20:24:37;13.20;1.00